F/V Pasiphae 2 — FMFN — position and weather

sailwx.info

Track history (hours):
 
Tides and Currents Weather Stations Pressure Air Temp Water Temp Dewpoint Dewpoint Depression Visibility Wind Speed Wind Dir Waves Ship Positions

F/V Pasiphae 2

Last reported at 2014-Aug-23 00:23 UTC. Time now 2014-Aug-23 07:35 UTC.
Position N 47°44' W 003°22'.

Length 14 m.

Type: Fishing. MMSI: 228224800.

Date/timePositionNaut miles runAvg speedWind from/ knotsBaromVisibWave heightAir tempDewpointWater temp
2014-Aug-23 00:23N 47°44' W 003°22'7 8.2
2014-Aug-22 23:33N 47°37' W 003°22'3 0.1
2014-Aug-22 02:23N 47°34' W 003°21'8 9.3
2014-Aug-22 01:33N 47°42' W 003°22'2 1.7
2014-Aug-22 00:33N 47°44' W 003°22'3 2.8
2014-Aug-21 23:33N 47°41' W 003°22'  
2014-Aug-15 23:33N 47°44' W 003°22'1 0.7
2014-Aug-15 22:33N 47°43' W 003°22'8 8.3
2014-Aug-15 21:33N 47°35' W 003°23'5 5.0
2014-Aug-15 20:30N 47°31' W 003°29'1 0.1
2014-Aug-15 05:21N 47°32' W 003°27'6 8.1
2014-Aug-15 04:33N 47°37' W 003°23'7 6.6
2014-Aug-15 03:33N 47°44' W 003°22'0 0.0
2014-Aug-15 02:33N 47°44' W 003°22'0 0.2
2014-Aug-15 01:33N 47°44' W 003°22'8 7.6
2014-Aug-15 00:33N 47°36' W 003°22'9 8.6
2014-Aug-14 23:33N 47°28' W 003°23'7 0.2
2014-Aug-13 02:33N 47°35' W 003°23'9 8.7
2014-Aug-13 01:33N 47°44' W 003°22'1 1.1
2014-Aug-13 00:33N 47°42' W 003°22'  
Track history (hours):
 
Tides and Currents Weather Stations Pressure Air Temp Water Temp Dewpoint Dewpoint Depression Visibility Wind Speed Wind Dir Waves Ship Positions

F/V Pasiphae 2

Last reported at 2014-Aug-23 00:23 UTC. Time now 2014-Aug-23 07:35 UTC.
Position N 47°44' W 003°22'.

Length 14 m.

Type: Fishing. MMSI: 228224800.

Date/timePositionNaut miles runAvg speedWind from/ knotsBaromVisibWave heightAir tempDewpointWater temp
2014-Aug-23 00:23N 47°44' W 003°22'7 8.2
2014-Aug-22 23:33N 47°37' W 003°22'3 0.1
2014-Aug-22 02:23N 47°34' W 003°21'8 9.3
2014-Aug-22 01:33N 47°42' W 003°22'2 1.7
2014-Aug-22 00:33N 47°44' W 003°22'3 2.8
2014-Aug-21 23:33N 47°41' W 003°22'  
2014-Aug-15 23:33N 47°44' W 003°22'1 0.7
2014-Aug-15 22:33N 47°43' W 003°22'8 8.3
2014-Aug-15 21:33N 47°35' W 003°23'5 5.0
2014-Aug-15 20:30N 47°31' W 003°29'1 0.1
2014-Aug-15 05:21N 47°32' W 003°27'6 8.1
2014-Aug-15 04:33N 47°37' W 003°23'7 6.6
2014-Aug-15 03:33N 47°44' W 003°22'0 0.0
2014-Aug-15 02:33N 47°44' W 003°22'0 0.2
2014-Aug-15 01:33N 47°44' W 003°22'8 7.6
2014-Aug-15 00:33N 47°36' W 003°22'9 8.6
2014-Aug-14 23:33N 47°28' W 003°23'7 0.2
2014-Aug-13 02:33N 47°35' W 003°23'9 8.7
2014-Aug-13 01:33N 47°44' W 003°22'1 1.1
2014-Aug-13 00:33N 47°42' W 003°22'  

Dump ship's entire track history